Meath Environmental Platform

Observations for Trim Market St

Time AQI Temp °C Hum % Pres Pa CO μg/m³ H₂S μg/m³ NO μg/m³ NO₂ μg/m³ O₃ μg/m³ SO₂ μg/m³ PM1 μg/m³ PM2.5 μg/m³ PM10 μg/m³
Tuesday 18 August 2026
12:25 2 24.1 53 56,147 0 0 2.68 13.78 68.98 0 0 2.32 2.44
12:20 2 24.1 53 55,708 0 0 2.44 12.74 66.88 0 0 2.31 2.45
12:15 2 24 54 55,637 0 0 3.43 20.02 63.15 0 0 1.79 1.97
12:14 2 23.9 54 55,689 0 0 3.53 66.73 26.8 0 0 1.79 1.96
12:13 2 23.9 54 55,775 0 0 2.64 11.92 61.91 0 0 1.78 2.47
12:12 2 23.8 54 55,769 0 0 2.72 12.49 75.54 0 0 1.79 1.96
12:11 2 23.8 54 55,858 0 0 2.77 12.48 72.83 0 0 2.3 2.45
12:10 2 23.7 53 55,942 0 0 2.74 12.97 63.62 0 0 1.8 1.98
12:09 2 23.7 53 56,053 0 0 2.73 12.85 73.44 0 0 1.81 1.99
12:08 2 23.7 53 56,162 0 0 2.61 13.5 69.48 0 0 1.81 2
12:06 2 23.8 53 56,634 0 0 3.12 10.79 62.73 0 0 1.81 1.99
12:04 2 23.8 53 56,977 0 0 3.07 11.76 60.85 0 0 1.82 2
11:58 2 24 53 57,482 0 0 3.31 11.51 60.14 0 0 1.82 2.42
11:52 2 23.9 53 57,232 0 0 2.36 12.36 69.7 0 0 2.32 2.43
11:51 2 23.8 53 57,289 0 0 2.43 11.87 65.68 0 0 1.82 2
11:50 2 23.8 53 57,372 0 0 2.56 10.72 64.4 0 0 1.82 2
11:45 2 23.6 53 57,254 0 0 2.36 9.17 63.06 0 0 1.81 1.99
11:44 2 23.6 53 57,223 0 0 2.59 7.43 55.33 0 0 1.8 1.98
11:43 2 23.6 53 56,912 0 0 3.67 9.45 58.15 0 0 1.8 1.98
11:42 2 23.6 54 56,666 0 0 3.74 7.84 53.55 0 0 1.79 1.97